createdAt,value
2022-08-09T00:01:10.569Z,2.38
2022-08-09T00:04:03.473Z,2.47
2022-08-09T00:06:27.612Z,2.47
2022-08-09T00:08:57.487Z,2.83
2022-08-09T00:11:27.736Z,2.45
2022-08-09T00:14:11.708Z,3.15
2022-08-09T00:16:45.546Z,2.80
2022-08-09T00:19:14.159Z,3.45
2022-08-09T00:21:56.051Z,2.90
2022-08-09T00:24:24.495Z,2.83
2022-08-09T00:26:51.218Z,2.33
2022-08-09T00:29:39.685Z,2.45
2022-08-09T00:32:05.936Z,2.92
2022-08-09T00:34:33.634Z,2.38
2022-08-09T00:37:00.410Z,2.33
2022-08-09T00:40:09.510Z,2.33
2022-08-09T00:44:11.381Z,2.42
2022-08-09T00:45:03.751Z,2.45
2022-08-09T00:47:42.435Z,3.10
2022-08-09T00:50:14.615Z,2.13
2022-08-09T00:52:41.634Z,2.70
2022-08-09T00:55:09.143Z,2.45
2022-08-09T00:57:43.596Z,2.50
2022-08-09T01:00:22.049Z,2.20
2022-08-09T01:02:58.383Z,2.65
2022-08-09T01:05:51.814Z,2.35
2022-08-09T01:08:29.442Z,2.70
2022-08-09T01:11:20.738Z,2.15
2022-08-09T01:14:01.955Z,2.40
2022-08-09T01:19:43.086Z,2.70
2022-08-09T01:22:43.706Z,2.33
2022-08-09T01:25:48.993Z,2.25
2022-08-09T01:28:19.311Z,2.70
2022-08-09T01:30:51.771Z,2.55
2022-08-09T01:33:22.415Z,2.45
2022-08-09T01:35:53.703Z,2.55
2022-08-09T01:38:25.574Z,2.50
2022-08-09T01:41:07.912Z,2.47
2022-08-09T01:43:41.882Z,2.80
2022-08-09T01:46:24.790Z,2.47
2022-08-09T01:49:10.689Z,2.67
2022-08-09T01:51:42.784Z,2.78
2022-08-09T01:54:12.079Z,2.75
2022-08-09T01:56:40.748Z,2.85
2022-08-09T01:59:10.248Z,2.58
2022-08-09T02:01:58.224Z,2.88
2022-08-09T02:04:24.982Z,2.30
2022-08-09T02:07:18.006Z,3.00
2022-08-09T02:10:03.954Z,3.22
2022-08-09T02:12:32.849Z,2.90
2022-08-09T02:15:00.969Z,2.70
2022-08-09T02:18:01.067Z,2.50
2022-08-09T02:20:26.428Z,2.58
2022-08-09T02:23:12.745Z,2.70
2022-08-09T02:25:42.190Z,3.00
2022-08-09T02:28:18.021Z,2.60
2022-08-09T02:31:06.259Z,3.10
2022-08-09T02:34:07.514Z,3.00
2022-08-09T02:36:32.624Z,2.30
2022-08-09T02:39:03.646Z,2.83
2022-08-09T02:41:51.488Z,2.53
2022-08-09T02:44:29.942Z,2.42
2022-08-09T02:46:58.709Z,2.92
2022-08-09T02:49:27.129Z,2.70
2022-08-09T02:52:06.505Z,2.95
2022-08-09T02:54:35.538Z,2.70
2022-08-09T02:57:23.091Z,2.72
2022-08-09T03:00:20.373Z,2.92
2022-08-09T03:02:39.172Z,3.30
2022-08-09T03:05:25.165Z,3.08
2022-08-09T03:07:55.080Z,3.08
2022-08-09T03:10:23.102Z,3.47
2022-08-09T03:12:51.960Z,3.00
2022-08-09T03:15:20.623Z,3.42
2022-08-09T03:17:53.871Z,3.60
2022-08-09T03:20:26.333Z,3.90
2022-08-09T03:22:58.432Z,3.92
2022-08-09T03:25:59.342Z,4.53
2022-08-09T03:28:20.409Z,3.90
2022-08-09T03:30:48.963Z,3.55
2022-08-09T03:33:18.792Z,3.60
2022-08-09T03:36:13.202Z,3.70
2022-08-09T03:38:42.028Z,3.60
2022-08-09T03:41:15.059Z,3.67
2022-08-09T03:44:02.861Z,3.83
2022-08-09T03:46:30.564Z,3.67
2022-08-09T03:48:59.710Z,3.42
2022-08-09T03:51:56.287Z,3.40
2022-08-09T03:54:18.929Z,3.15
2022-08-09T03:56:57.792Z,3.60
2022-08-09T03:59:27.683Z,3.35
2022-08-09T04:02:11.428Z,4.00
2022-08-09T04:04:40.961Z,3.30
2022-08-09T04:09:47.610Z,3.63
2022-08-09T04:12:33.948Z,3.55
2022-08-09T04:15:11.339Z,3.80
2022-08-09T04:17:44.193Z,3.35
2022-08-09T04:20:15.135Z,3.45
2022-08-09T04:22:44.227Z,3.75
2022-08-09T04:25:12.998Z,3.95
2022-08-09T04:27:42.901Z,3.88
2022-08-09T04:30:20.871Z,3.60
2022-08-09T04:32:50.503Z,3.80
2022-08-09T04:35:17.634Z,3.65
2022-08-09T04:37:48.411Z,4.10
2022-08-09T04:40:19.200Z,3.88
2022-08-09T04:42:56.839Z,3.97
2022-08-09T04:45:23.800Z,3.97
2022-08-09T04:48:00.973Z,3.92
2022-08-09T04:50:33.729Z,4.03
2022-08-09T04:53:13.002Z,3.97
2022-08-09T04:55:52.764Z,4.30
2022-08-09T04:58:25.861Z,4.13
2022-08-09T05:00:54.444Z,4.57
2022-08-09T05:03:41.248Z,4.28
2022-08-09T05:06:08.917Z,4.25
2022-08-09T05:08:35.535Z,4.30
2022-08-09T05:11:03.670Z,4.10
2022-08-09T05:13:33.913Z,4.35
2022-08-09T05:16:05.356Z,4.82
2022-08-09T05:18:38.909Z,4.78
2022-08-09T05:21:24.273Z,4.90
2022-08-09T05:24:00.732Z,4.72
2022-08-09T05:26:45.538Z,4.95
2022-08-09T05:29:21.635Z,4.95
2022-08-09T05:31:57.380Z,5.10
2022-08-09T05:34:30.615Z,5.18
2022-08-09T05:37:05.887Z,5.22
2022-08-09T05:39:36.447Z,4.78
2022-08-09T05:42:17.495Z,4.47
2022-08-09T05:44:50.964Z,5.25
2022-08-09T05:47:19.164Z,5.03
2022-08-09T05:50:28.137Z,5.45
2022-08-09T05:52:32.789Z,5.20
2022-08-09T05:55:03.034Z,5.22
2022-08-09T05:57:55.840Z,5.18
2022-08-09T06:00:28.814Z,5.35
2022-08-09T06:03:00.043Z,5.20
2022-08-09T06:05:30.839Z,5.57
2022-08-09T06:08:19.410Z,5.07
2022-08-09T06:10:51.992Z,4.80
2022-08-09T06:13:20.645Z,4.70
2022-08-09T06:15:51.142Z,4.82
2022-08-09T06:18:23.866Z,4.97
2022-08-09T06:20:54.514Z,5.32
2022-08-09T06:23:24.737Z,5.03
2022-08-09T06:26:11.336Z,4.38
2022-08-09T06:28:38.040Z,4.75
2022-08-09T06:31:05.391Z,4.70
2022-08-09T06:33:41.162Z,4.68
2022-08-09T06:36:09.303Z,4.93
2022-08-09T06:38:37.630Z,5.30
2022-08-09T06:41:08.604Z,5.20
2022-08-09T06:46:39.210Z,4.00
2022-08-09T06:49:00.702Z,4.57
2022-08-09T06:51:27.936Z,4.60
2022-08-09T06:53:55.209Z,5.43
2022-08-09T06:56:30.555Z,4.63
2022-08-09T07:00:48.647Z,4.15
2022-08-09T07:01:54.291Z,4.53
2022-08-09T07:04:26.926Z,4.75
2022-08-09T07:07:00.660Z,4.65
2022-08-09T07:09:56.050Z,3.90
2022-08-09T07:12:18.140Z,4.65
2022-08-09T07:14:51.211Z,4.45
2022-08-09T07:17:19.873Z,4.30
2022-08-09T07:19:48.009Z,4.82
2022-08-09T07:22:17.559Z,3.83
2022-08-09T07:24:49.593Z,4.10
2022-08-09T07:27:33.043Z,4.40
2022-08-09T07:30:01.679Z,4.80
2022-08-09T07:32:33.136Z,4.10
2022-08-09T07:35:02.522Z,4.47
2022-08-09T07:37:29.546Z,4.25
2022-08-09T07:39:56.191Z,4.10
2022-08-09T07:42:32.441Z,3.55
2022-08-09T07:45:06.368Z,4.07
2022-08-09T07:47:49.340Z,4.20
2022-08-09T07:50:21.107Z,3.47
2022-08-09T07:53:03.073Z,4.03
2022-08-09T07:55:41.707Z,3.95
2022-08-09T07:58:18.641Z,4.20
2022-08-09T08:00:56.174Z,3.67
2022-08-09T08:03:32.659Z,3.55
2022-08-09T08:05:59.277Z,3.83
2022-08-09T08:09:02.633Z,4.50
2022-08-09T08:12:08.796Z,4.03
2022-08-09T08:14:00.189Z,4.47
2022-08-09T08:16:29.940Z,3.88
2022-08-09T08:18:58.843Z,3.88
2022-08-09T08:21:25.455Z,4.40
2022-08-09T08:23:56.067Z,5.60
2022-08-09T08:26:26.760Z,5.20
2022-08-09T08:29:09.477Z,5.22
2022-08-09T08:31:56.422Z,5.53
2022-08-09T08:34:25.356Z,5.55
2022-08-09T08:36:52.344Z,4.55
2022-08-09T08:39:19.165Z,4.63
2022-08-09T08:41:51.417Z,4.28
2022-08-09T08:44:23.042Z,3.85
2022-08-09T08:47:02.780Z,4.13
2022-08-09T08:49:48.310Z,4.35
2022-08-09T08:52:52.500Z,4.03
2022-08-09T08:55:06.327Z,3.60
2022-08-09T08:57:34.732Z,3.65
2022-08-09T09:00:12.593Z,2.97
2022-08-09T09:02:44.321Z,3.33
2022-08-09T09:05:57.911Z,3.20
2022-08-09T09:08:31.146Z,3.30
2022-08-09T09:11:01.928Z,3.25
2022-08-09T09:13:41.663Z,3.20
2022-08-09T09:16:14.123Z,3.58
2022-08-09T09:18:48.068Z,3.40
2022-08-09T09:21:26.390Z,3.30
2022-08-09T09:23:58.274Z,2.80
2022-08-09T09:26:25.994Z,2.75
2022-08-09T09:29:04.032Z,2.60
2022-08-09T09:32:04.140Z,3.42
2022-08-09T09:34:25.111Z,2.60
2022-08-09T09:36:57.407Z,2.95
2022-08-09T09:39:54.744Z,2.57
2022-08-09T09:42:26.127Z,3.20
2022-08-09T09:44:59.685Z,3.45
2022-08-09T09:47:28.549Z,2.63
2022-08-09T09:50:14.854Z,2.92
2022-08-09T09:52:56.175Z,3.05
2022-08-09T09:55:28.264Z,3.22
2022-08-09T09:58:02.951Z,2.65
2022-08-09T10:00:31.913Z,2.65
2022-08-09T10:03:00.405Z,2.95
2022-08-09T10:06:01.000Z,2.90
2022-08-09T10:08:27.904Z,2.75
2022-08-09T10:10:55.634Z,3.13
2022-08-09T10:13:42.756Z,2.78
2022-08-09T10:16:58.119Z,3.40
2022-08-09T10:18:59.879Z,2.63
2022-08-09T10:21:27.211Z,3.17
2022-08-09T10:23:54.681Z,2.85
2022-08-09T10:26:24.637Z,3.47
2022-08-09T10:29:23.289Z,2.80
2022-08-09T10:32:27.847Z,2.95
2022-08-09T10:34:33.553Z,3.40
2022-08-09T10:37:02.212Z,3.33
2022-08-09T10:39:30.008Z,3.08
2022-08-09T10:42:08.226Z,2.75
2022-08-09T10:44:37.515Z,3.28
2022-08-09T10:48:19.580Z,3.67
2022-08-09T10:50:31.296Z,2.92
2022-08-09T10:53:10.117Z,2.90
2022-08-09T10:55:55.700Z,3.30
2022-08-09T10:58:34.579Z,2.47
2022-08-09T11:03:02.044Z,2.90
2022-08-09T11:04:31.411Z,3.03
2022-08-09T11:07:00.015Z,3.10
2022-08-09T11:09:41.378Z,3.10
2022-08-09T11:12:20.144Z,2.85
2022-08-09T11:15:25.057Z,2.70
2022-08-09T11:18:03.803Z,3.00
2022-08-09T11:20:47.430Z,2.90
2022-08-09T11:23:16.746Z,3.00
2022-08-09T11:25:50.832Z,3.33
2022-08-09T11:28:34.600Z,2.95
2022-08-09T11:31:53.111Z,2.30
2022-08-09T11:34:35.245Z,3.17
2022-08-09T11:37:03.416Z,3.28
2022-08-09T11:40:00.476Z,3.00
2022-08-09T11:42:46.981Z,3.55
2022-08-09T11:45:26.368Z,2.92
2022-08-09T11:48:26.128Z,2.72
2022-08-09T11:51:21.342Z,2.50
2022-08-09T11:53:59.496Z,2.90
2022-08-09T11:56:34.316Z,3.28
2022-08-09T11:59:11.588Z,3.00
2022-08-09T12:02:17.325Z,3.00
2022-08-09T12:04:37.011Z,2.90
2022-08-09T12:07:04.612Z,2.78
2022-08-09T12:09:35.411Z,2.72
2022-08-09T12:12:06.020Z,2.80
2022-08-09T12:14:48.879Z,2.47
2022-08-09T12:17:33.894Z,2.83
2022-08-09T12:20:22.427Z,3.08
2022-08-09T12:22:57.062Z,2.67
2022-08-09T12:25:31.847Z,2.70
2022-08-09T12:29:15.497Z,2.45
2022-08-09T12:31:02.886Z,2.70
2022-08-09T12:33:58.809Z,3.05
2022-08-09T12:36:32.351Z,2.80
2022-08-09T12:39:00.856Z,2.70
2022-08-09T12:41:38.271Z,2.70
2022-08-09T12:44:07.982Z,2.95
2022-08-09T12:46:40.038Z,2.92
2022-08-09T12:49:08.580Z,2.70
2022-08-09T12:52:00.729Z,2.38
2022-08-09T12:54:22.114Z,2.80
2022-08-09T12:56:53.959Z,2.55
2022-08-09T12:59:22.622Z,2.73
2022-08-09T13:01:58.374Z,2.40
2022-08-09T13:04:37.559Z,2.58
2022-08-09T13:07:13.935Z,2.75
2022-08-09T13:09:43.316Z,2.58
2022-08-09T13:12:12.296Z,3.10
2022-08-09T13:14:44.350Z,2.60
2022-08-09T13:17:43.814Z,2.80
2022-08-09T13:20:13.205Z,2.65
2022-08-09T13:23:05.553Z,2.55
2022-08-09T13:28:10.921Z,2.65
2022-08-09T13:31:11.060Z,2.42
2022-08-09T13:33:52.363Z,2.20
2022-08-09T13:36:38.221Z,2.20
2022-08-09T13:41:17.364Z,2.60
2022-08-09T13:42:04.426Z,2.47
2022-08-09T13:44:31.666Z,2.60
2022-08-09T13:47:29.092Z,2.45
2022-08-09T13:49:56.206Z,2.50
2022-08-09T13:52:24.859Z,2.30
2022-08-09T13:54:59.359Z,2.50
2022-08-09T13:57:36.021Z,2.35
2022-08-09T14:00:09.058Z,2.53
2022-08-09T14:02:42.114Z,2.22
2022-08-09T14:05:58.519Z,2.30
2022-08-09T14:08:13.662Z,2.35
2022-08-09T14:10:49.416Z,2.67
2022-08-09T14:13:21.509Z,2.90
2022-08-09T14:16:09.212Z,1.95
2022-08-09T14:18:39.228Z,2.30
2022-08-09T14:21:17.311Z,2.53
2022-08-09T14:23:53.977Z,2.70
2022-08-09T14:26:24.071Z,2.42
2022-08-09T14:28:57.008Z,2.30
2022-08-09T14:31:49.455Z,2.55
2022-08-09T14:34:10.939Z,2.42
2022-08-09T14:36:39.655Z,2.00
2022-08-09T14:39:09.821Z,2.35
2022-08-09T14:41:40.243Z,2.25
2022-08-09T14:44:11.109Z,2.38
2022-08-09T14:46:57.104Z,2.38
2022-08-09T14:49:25.528Z,2.60
2022-08-09T14:51:58.360Z,2.17
2022-08-09T14:54:28.047Z,2.10
2022-08-09T14:56:58.743Z,2.47
2022-08-09T14:59:28.373Z,2.13
2022-08-09T15:01:55.959Z,2.40
2022-08-09T15:04:23.602Z,2.30
2022-08-09T15:06:51.705Z,2.17
2022-08-09T15:10:03.401Z,2.30
2022-08-09T15:12:08.089Z,2.85
2022-08-09T15:14:38.698Z,2.20
2022-08-09T15:17:09.284Z,2.40
2022-08-09T15:19:36.823Z,2.27
2022-08-09T15:22:04.748Z,2.15
2022-08-09T15:24:32.228Z,2.30
2022-08-09T15:26:59.422Z,2.20
2022-08-09T15:30:57.290Z,2.28
2022-08-09T15:32:39.253Z,2.40
2022-08-09T15:35:01.245Z,2.20
2022-08-09T15:37:36.963Z,2.10
2022-08-09T15:40:15.538Z,1.90
2022-08-09T15:42:47.739Z,2.25
2022-08-09T15:45:15.872Z,2.38
2022-08-09T15:48:01.861Z,2.42
2022-08-09T15:50:33.622Z,2.10
2022-08-09T15:53:06.235Z,2.20
2022-08-09T15:55:53.918Z,2.70
2022-08-09T15:58:27.019Z,2.58
2022-08-09T16:00:54.165Z,2.40
2022-08-09T16:03:29.375Z,2.63
2022-08-09T16:06:06.650Z,2.40
2022-08-09T16:08:33.510Z,2.83
2022-08-09T16:11:02.093Z,2.20
2022-08-09T16:14:03.348Z,2.45
2022-08-09T16:16:17.463Z,2.35
2022-08-09T16:18:45.725Z,2.58
2022-08-09T16:21:17.253Z,2.40
2022-08-09T16:23:54.852Z,1.95
2022-08-09T16:26:33.615Z,1.98
2022-08-09T16:29:01.380Z,2.50
2022-08-09T16:32:19.899Z,2.30
2022-08-09T16:34:24.643Z,2.40
2022-08-09T16:36:51.420Z,2.35
2022-08-09T16:39:18.013Z,2.15
2022-08-09T16:42:02.857Z,2.58
2022-08-09T16:44:31.826Z,2.30
2022-08-09T16:47:03.947Z,2.40
2022-08-09T16:50:29.950Z,2.30
2022-08-09T16:52:32.424Z,2.63
2022-08-09T16:54:59.278Z,2.35
2022-08-09T16:57:26.063Z,2.30
2022-08-09T17:00:13.962Z,2.35
2022-08-09T17:02:42.650Z,2.25
2022-08-09T17:05:14.014Z,2.38
2022-08-09T17:08:45.726Z,2.08
2022-08-09T17:10:33.124Z,1.92
2022-08-09T17:13:01.300Z,2.15
2022-08-09T17:15:58.887Z,2.28
2022-08-09T17:18:15.255Z,2.15
2022-08-09T17:20:49.180Z,2.03
2022-08-09T17:23:19.004Z,2.05
2022-08-09T17:25:52.794Z,2.30
2022-08-09T17:28:19.918Z,2.00
2022-08-09T17:30:47.661Z,1.98
2022-08-09T17:33:22.549Z,2.15
2022-08-09T17:35:49.753Z,2.20
2022-08-09T17:38:32.041Z,2.40
2022-08-09T17:41:03.374Z,2.15
2022-08-09T17:43:34.251Z,1.92
2022-08-09T17:46:09.172Z,2.30
2022-08-09T17:48:39.545Z,2.28
2022-08-09T17:51:17.074Z,2.47
2022-08-09T17:53:51.624Z,2.22
2022-08-09T17:56:27.717Z,2.13
2022-08-09T17:58:59.776Z,2.10
2022-08-09T18:04:07.624Z,2.08
2022-08-09T18:06:36.839Z,1.98
2022-08-09T18:09:07.107Z,2.25
2022-08-09T18:12:05.611Z,2.73
2022-08-09T18:14:22.231Z,2.20
2022-08-09T18:16:49.809Z,1.90
2022-08-09T18:21:00.523Z,2.40
2022-08-09T18:22:03.859Z,2.28
2022-08-09T18:24:31.155Z,2.25
2022-08-09T18:26:57.989Z,2.20
2022-08-09T18:30:39.439Z,2.58
2022-08-09T18:32:14.399Z,1.98
2022-08-09T18:34:45.928Z,1.92
2022-08-09T18:37:47.713Z,2.00
2022-08-09T18:40:01.908Z,2.15
2022-08-09T18:42:29.464Z,2.53
2022-08-09T18:44:57.027Z,2.20
2022-08-09T18:47:27.790Z,2.40
2022-08-09T18:50:06.111Z,2.10
2022-08-09T18:52:35.846Z,2.00
2022-08-09T18:55:04.965Z,2.20
2022-08-09T18:57:38.393Z,2.00
2022-08-09T19:00:16.356Z,2.08
2022-08-09T19:02:45.828Z,1.90
2022-08-09T19:05:20.224Z,2.00
2022-08-09T19:08:03.585Z,2.03
2022-08-09T19:10:37.147Z,1.90
2022-08-09T19:13:20.051Z,2.58
2022-08-09T19:15:56.266Z,1.90
2022-08-09T19:18:34.087Z,2.28
2022-08-09T19:21:03.379Z,1.85
2022-08-09T19:24:32.134Z,1.88
2022-08-09T19:26:19.561Z,1.95
2022-08-09T19:29:01.373Z,1.70
2022-08-09T19:31:30.447Z,2.13
2022-08-09T19:33:58.046Z,1.95
2022-08-09T19:36:30.885Z,1.52
2022-08-09T19:39:03.407Z,1.63
2022-08-09T19:41:33.237Z,1.80
2022-08-09T19:44:03.566Z,1.58
2022-08-09T19:46:35.814Z,1.50
2022-08-09T19:50:09.906Z,1.60
2022-08-09T19:52:03.793Z,1.60
2022-08-09T19:54:30.889Z,1.70
2022-08-09T19:56:58.513Z,1.90
2022-08-09T19:59:58.343Z,1.70
2022-08-09T20:03:23.785Z,1.67
2022-08-09T20:05:01.191Z,1.95
2022-08-09T20:07:49.690Z,1.50
2022-08-09T20:10:17.790Z,1.50
2022-08-09T20:12:49.120Z,1.90
2022-08-09T20:16:34.770Z,1.73
2022-08-09T20:18:05.144Z,1.95
2022-08-09T20:20:35.509Z,1.70
2022-08-09T20:23:04.475Z,1.70
2022-08-09T20:25:38.168Z,1.50
2022-08-09T20:28:27.399Z,1.55
2022-08-09T20:30:54.844Z,1.88
2022-08-09T20:33:21.904Z,1.58
2022-08-09T20:35:51.608Z,1.60
2022-08-09T20:38:33.102Z,1.73
2022-08-09T20:41:05.920Z,1.88
2022-08-09T20:43:32.770Z,1.70
2022-08-09T20:46:33.371Z,2.17
2022-08-09T20:48:46.011Z,1.60
2022-08-09T20:51:19.403Z,2.20
2022-08-09T20:53:46.474Z,1.70
2022-08-09T20:56:21.085Z,1.63
2022-08-09T20:58:58.650Z,1.92
2022-08-09T21:01:34.463Z,1.45
2022-08-09T21:05:51.714Z,2.20
2022-08-09T21:07:13.232Z,1.83
2022-08-09T21:09:55.566Z,1.70
2022-08-09T21:15:13.022Z,2.03
2022-08-09T21:18:24.470Z,1.60
2022-08-09T21:20:31.043Z,1.88
2022-08-09T21:22:59.457Z,1.85
2022-08-09T21:25:53.902Z,1.90
2022-08-09T21:28:35.133Z,1.52
2022-08-09T21:31:17.925Z,1.75
2022-08-09T21:33:52.532Z,1.92
2022-08-09T21:36:26.052Z,1.70
2022-08-09T21:38:57.561Z,1.80
2022-08-09T21:42:05.973Z,1.80
2022-08-09T21:44:32.904Z,1.85
2022-08-09T21:47:08.834Z,1.67
2022-08-09T21:49:42.889Z,1.73
2022-08-09T21:52:17.179Z,1.88
2022-08-09T21:54:59.554Z,1.70
2022-08-09T21:57:38.519Z,2.20
2022-08-09T22:00:25.451Z,1.70
2022-08-09T22:02:59.148Z,1.90
2022-08-09T22:05:35.655Z,1.75
2022-08-09T22:08:05.260Z,1.70
2022-08-09T22:10:32.030Z,1.95
2022-08-09T22:13:00.103Z,1.70
2022-08-09T22:15:35.272Z,2.28
2022-08-09T22:18:03.815Z,1.90
2022-08-09T22:20:31.211Z,2.00
2022-08-09T22:22:58.488Z,2.00
2022-08-09T22:26:07.518Z,1.85
2022-08-09T22:28:11.949Z,1.70
2022-08-09T22:30:39.155Z,1.70
2022-08-09T22:33:17.256Z,1.85
2022-08-09T22:36:01.309Z,1.85
2022-08-09T22:38:30.070Z,1.85
2022-08-09T22:40:58.539Z,1.67
2022-08-09T22:44:01.367Z,1.95
2022-08-09T22:48:15.519Z,2.00
2022-08-09T22:49:09.839Z,2.08
2022-08-09T22:51:38.502Z,1.98
2022-08-09T22:54:08.071Z,1.77
2022-08-09T22:56:37.297Z,1.98
2022-08-09T22:59:05.855Z,1.80
2022-08-09T23:01:51.937Z,1.85
2022-08-09T23:04:20.032Z,1.80
2022-08-09T23:07:11.104Z,1.80
2022-08-09T23:09:38.864Z,2.00
2022-08-09T23:12:05.709Z,1.88
2022-08-09T23:14:41.843Z,1.90
2022-08-09T23:17:10.314Z,1.95
2022-08-09T23:20:07.504Z,2.08
2022-08-09T23:22:23.680Z,2.00
2022-08-09T23:24:50.290Z,1.83
2022-08-09T23:27:16.833Z,2.17
2022-08-09T23:29:43.696Z,2.30
2022-08-09T23:32:10.398Z,1.83
2022-08-09T23:34:36.966Z,1.98
2022-08-09T23:37:04.502Z,1.83
2022-08-09T23:39:31.177Z,1.92
2022-08-09T23:41:58.021Z,2.17
2022-08-09T23:44:24.570Z,1.83
2022-08-09T23:46:55.999Z,1.92
2022-08-09T23:49:24.997Z,1.92
2022-08-09T23:51:52.616Z,1.63
2022-08-09T23:54:19.823Z,1.90
2022-08-09T23:56:54.131Z,1.90
2022-08-09T23:59:22.374Z,1.70
